< < Back
Terminal Aerodrome Forecast


Current Version              Previous Versions:   1  2  3  4  5  6  7  8  9  

Terminal Aerodrome Forecast

788
FTUS42 KMLB 261132
TAFDAB
TAF
KDAB 261132Z 2612/2712 00000KT P6SM SCT060 BKN250
      TEMPO 2612/2613 5SM BR
     FM261500 19008KT P6SM SCT025 BKN080
     FM261800 21010KT P6SM VCTS SCT030CB BKN060 BKN250
     FM270000 21004KT P6SM VCSH SCT040 OVC080
     FM270400 21007KT P6SM SCT030 OVC100=



Latest METAR

210
SAUS80 KWBC 270500 CCA
MTRDAB
METAR KDAB 270453Z 21005KT 10SM OVC110 19/18 A2989 RMK AO2 SLP119
T01940178 402890161


USA.gov is the U.S. government's official web portal to all federal, state and local government web resources and services.